Time;durP1;ratioP1;P1;durP2;ratioP2;P2;SDS_P1;SDS_P2;PMS_P1;PMS_P2;Temp;Humidity;BMP_temperature;BMP_pressure;BME280_temperature;BME280_humidity;BME280_pressure;Samples;Min_cycle;Max_cycle;Signal;HPM_P1;HPM_P2
2021/09/18 00:00:14;;;;;;;12.33;6.78;;;;;;;18.94;77.08;98581.11;1744074;80;21568;-64
2021/09/18 00:02:41;;;;;;;8.98;6.47;;;;;;;18.94;77.08;98581.11;1744742;80;21577;-63
2021/09/18 00:05:09;;;;;;;11.43;5.80;;;;;;;18.99;76.79;98577.52;1746716;80;21478;-63
2021/09/18 00:07:36;;;;;;;10.35;7.03;;;;;;;18.99;76.79;98577.52;1740634;82;21756;-64
2021/09/18 00:10:04;;;;;;;12.82;7.05;;;;;;;19.00;76.93;98575.19;1742425;80;21442;-63
2021/09/18 00:12:34;;;;;;;13.18;7.20;;;;;;;18.98;76.83;98573.16;1742067;81;21464;-63
2021/09/18 00:15:01;;;;;;;;;;;;;;;18.92;76.83;98568.42;1746559;80;21001;-64
2021/09/18 00:17:30;;;;;;;11.60;6.83;;;;;;;18.89;77.46;98570.03;1747057;80;20493;-64
2021/09/18 00:19:57;;;;;;;9.20;7.12;;;;;;;18.93;77.30;98571.45;1757686;80;21419;-64
2021/09/18 00:22:24;;;;;;;12.90;7.22;;;;;;;18.95;77.27;98560.16;1771978;80;21475;-64
2021/09/18 00:24:52;;;;;;;13.62;7.80;;;;;;;18.96;77.52;98567.65;1764367;80;21542;-64
2021/09/18 00:27:19;;;;;;;11.18;7.33;;;;;;;18.89;77.25;98562.55;1742612;80;21683;-66
2021/09/18 00:29:46;;;;;;;10.68;7.08;;;;;;;18.89;77.79;98563.38;1767574;80;21479;-65
2021/09/18 00:32:12;;;;;;;12.60;8.03;;;;;;;18.93;77.91;98563.93;1769885;80;21821;-65
2021/09/18 00:34:39;;;;;;;7.50;6.77;;;;;;;18.98;77.86;98564.34;1772943;80;21483;-65
2021/09/18 00:37:06;;;;;;;9.57;7.73;;;;;;;18.97;77.81;98561.35;1766351;80;21400;-66
2021/09/18 00:39:32;;;;;;;10.45;7.95;;;;;;;18.91;77.65;98555.25;1772610;80;21973;-65
2021/09/18 00:41:59;;;;;;;18.27;8.10;;;;;;;18.89;77.68;98552.73;1735520;82;21431;-65
2021/09/18 00:44:27;;;;;;;14.78;7.97;;;;;;;18.89;77.68;98552.73;1767055;80;22073;-65
2021/09/18 00:46:55;;;;;;;12.63;6.90;;;;;;;18.90;78.18;98547.77;1736085;82;21554;-64
2021/09/18 00:49:21;;;;;;;12.80;7.62;;;;;;;18.92;77.99;98550.28;1736342;82;28465;-64
2021/09/18 00:51:49;;;;;;;13.15;8.73;;;;;;;18.97;78.22;98544.87;1757255;80;21582;-64
2021/09/18 00:54:16;;;;;;;12.83;9.00;;;;;;;18.93;78.12;98539.49;1769616;80;21436;-65
2021/09/18 00:56:44;;;;;;;12.93;8.10;;;;;;;18.91;78.11;98543.27;1772527;79;21847;-65
2021/09/18 00:59:11;;;;;;;12.60;8.18;;;;;;;18.92;78.38;98536.97;1760127;80;21510;-65
2021/09/18 01:01:38;;;;;;;13.08;7.72;;;;;;;18.96;78.50;98539.68;1770554;80;21597;-65
2021/09/18 01:04:05;;;;;;;15.63;8.13;;;;;;;18.98;78.52;98533.72;1772923;80;21404;-65
2021/09/18 01:06:31;;;;;;;14.47;8.93;;;;;;;18.99;78.51;98529.58;1772752;80;21439;-65
2021/09/18 01:09:00;;;;;;;12.25;8.05;;;;;;;18.94;78.15;98521.68;1772685;80;21451;-65
2021/09/18 01:11:28;;;;;;;15.90;9.48;;;;;;;18.94;78.15;98521.68;1743692;80;21423;-65
2021/09/18 01:13:55;;;;;;;15.13;8.68;;;;;;;18.96;78.60;98521.04;1739688;80;21551;-65
2021/09/18 01:16:24;;;;;;;12.35;7.33;;;;;;;19.02;78.62;98517.31;1739693;80;21649;-65
2021/09/18 01:18:52;;;;;;;10.88;8.45;;;;;;;19.06;78.60;98516.02;1742020;80;21526;-65
2021/09/18 01:21:20;;;;;;;11.65;8.08;;;;;;;19.09;78.50;98512.22;1741782;80;21561;-65
2021/09/18 01:23:48;;;;;;;15.75;9.33;;;;;;;19.06;78.32;98507.17;1763826;80;21562;-65
2021/09/18 01:26:16;;;;;;;13.03;8.83;;;;;;;19.01;78.33;98508.96;1735753;82;21494;-64
2021/09/18 01:28:43;;;;;;;14.87;8.85;;;;;;;19.00;78.68;98503.27;1770699;80;20938;-63
2021/09/18 01:31:10;;;;;;;16.48;8.70;;;;;;;19.03;78.75;98508.31;1772801;80;21045;-64
2021/09/18 01:33:38;;;;;;;13.38;8.45;;;;;;;19.03;78.62;98496.83;1757320;80;21550;-65
2021/09/18 01:36:05;;;;;;;19.27;9.33;;;;;;;19.03;78.62;98496.83;1761480;80;20947;-66
2021/09/18 01:38:32;;;;;;;20.32;9.78;;;;;;;19.00;78.84;98500.61;1772867;80;20978;-65
2021/09/18 01:40:59;;;;;;;12.15;8.68;;;;;;;18.97;78.79;98498.77;1772692;80;21597;-64
2021/09/18 01:43:29;;;;;;;15.28;8.75;;;;;;;18.98;79.06;98492.43;1772649;80;21538;-65
2021/09/18 01:45:55;;;;;;;18.75;9.05;;;;;;;19.02;79.11;98488.02;1770665;80;21777;-65
2021/09/18 01:48:23;;;;;;;11.22;8.60;;;;;;;19.06;79.10;98484.06;1771533;80;21463;-65
2021/09/18 01:50:52;;;;;;;14.63;9.80;;;;;;;19.00;79.19;98485.96;1756353;80;21037;-64
2021/09/18 01:53:23;;;;;;;13.78;8.90;;;;;;;19.00;79.19;98485.96;1742304;80;21476;-64
2021/09/18 01:55:51;;;;;;;13.55;8.28;;;;;;;19.04;79.35;98476.71;1744013;80;21502;-63
2021/09/18 01:58:18;;;;;;;13.80;8.60;;;;;;;19.04;79.35;98476.71;1760485;80;22062;-64
2021/09/18 02:00:53;;;;;;;11.93;9.05;;;;;;;19.09;79.33;98480.75;1755059;80;21471;-63
2021/09/18 02:03:21;;;;;;;11.95;9.13;;;;;;;19.14;79.15;98483.82;1747358;80;21581;-64
2021/09/18 02:05:48;;;;;;;13.93;9.98;;;;;;;19.10;78.98;98471.28;1741836;82;21550;-62
2021/09/18 02:08:16;;;;;;;15.43;9.45;;;;;;;19.09;79.08;98469.59;1745543;80;21414;-64
2021/09/18 02:10:44;;;;;;;15.53;9.60;;;;;;;19.14;79.15;98467.84;1768201;80;21671;-66
2021/09/18 02:13:11;;;;;;;10.25;8.58;;;;;;;19.19;79.09;98466.40;1772916;80;28519;-66
2021/09/18 02:15:38;;;;;;;18.40;10.32;;;;;;;19.23;79.01;98469.58;1772289;80;21432;-65
2021/09/18 02:18:07;;;;;;;14.90;10.85;;;;;;;19.21;78.97;98466.23;1772473;80;21460;-68
2021/09/18 02:20:34;;;;;;;11.93;9.50;;;;;;;19.17;78.99;98463.52;1772793;80;21519;-67
2021/09/18 02:23:01;;;;;;;16.23;8.95;;;;;;;19.17;79.09;98468.34;1772937;80;21534;-65
2021/09/18 02:25:29;;;;;;;11.08;9.48;;;;;;;19.20;79.19;98455.23;1772495;80;21497;-67
2021/09/18 02:27:56;;;;;;;12.58;9.63;;;;;;;19.26;78.58;98451.97;1739724;80;20983;-69
2021/09/18 02:30:27;;;;;;;14.53;10.13;;;;;;;19.26;78.58;98451.97;1735600;82;21480;-69
2021/09/18 02:32:55;;;;;;;13.93;9.63;;;;;;;19.18;78.65;98456.72;1746278;80;21614;-68
2021/09/18 02:35:23;;;;;;;13.25;8.90;;;;;;;19.18;78.65;98456.72;1762934;80;22151;-66
2021/09/18 02:37:52;;;;;;;16.48;10.23;;;;;;;19.21;79.20;98459.09;1742133;81;21517;-68
2021/09/18 02:40:21;;;;;;;12.95;9.50;;;;;;;19.24;79.13;98445.45;1746089;80;21682;-65
2021/09/18 02:42:50;;;;;;;11.70;8.65;;;;;;;19.24;79.13;98445.45;1763143;80;21424;-67
2021/09/18 02:45:19;;;;;;;15.00;8.83;;;;;;;19.26;79.10;98450.64;1714927;82;21546;-66
2021/09/18 02:47:46;;;;;;;18.77;10.20;;;;;;;19.22;78.77;98458.59;1747428;80;22092;-66
2021/09/18 02:50:15;;;;;;;13.68;10.18;;;;;;;19.22;78.77;98458.59;1738032;80;21531;-67
2021/09/18 02:52:42;;;;;;;16.37;9.73;;;;;;;19.19;79.23;98456.22;1741777;82;21450;-60
2021/09/18 02:55:10;;;;;;;17.40;10.25;;;;;;;19.18;79.23;98443.39;1755184;80;21451;-66
2021/09/18 02:57:39;;;;;;;12.47;10.10;;;;;;;19.18;79.33;98442.56;1770816;80;21503;-63
2021/09/18 03:00:09;;;;;;;13.25;9.45;;;;;;;19.22;79.32;98447.94;1765684;80;21534;-62
2021/09/18 03:02:36;;;;;;;12.37;9.35;;;;;;;19.22;79.30;98446.60;1757646;80;21616;-62
2021/09/18 03:05:05;;;;;;;11.00;9.55;;;;;;;19.22;79.21;98453.27;1735148;80;21550;-62
2021/09/18 03:07:32;;;;;;;10.05;8.98;;;;;;;19.26;79.22;98447.97;1756525;80;21601;-62
2021/09/18 03:10:00;;;;;;;14.30;9.03;;;;;;;19.26;79.22;98447.97;1739002;80;21524;-62
2021/09/18 03:12:27;;;;;;;12.80;9.80;;;;;;;19.29;79.16;98446.82;1753965;80;22028;-63
2021/09/18 03:14:55;;;;;;;13.98;10.00;;;;;;;19.29;78.95;98436.16;1772405;80;21418;-63
2021/09/18 03:17:21;;;;;;;16.50;10.40;;;;;;;19.31;78.75;98435.05;1772773;80;21541;-63
2021/09/18 03:19:51;;;;;;;10.25;9.23;;;;;;;19.26;78.64;98436.81;1772693;80;21506;-63
2021/09/18 03:22:19;;;;;;;17.02;9.18;;;;;;;19.25;78.85;98435.66;1772817;80;21498;-63
2021/09/18 03:24:48;;;;;;;12.43;8.78;;;;;;;19.30;78.91;98425.36;1765918;80;21511;-62
2021/09/18 03:27:14;;;;;;;13.00;9.55;;;;;;;19.33;78.70;98428.23;1742148;80;21481;-63
2021/09/18 03:29:43;;;;;;;11.28;10.13;;;;;;;19.34;78.52;98429.39;1742080;82;21457;-62
2021/09/18 03:32:10;;;;;;;13.00;9.47;;;;;;;19.28;78.38;98419.34;1765271;80;21584;-63
2021/09/18 03:34:36;;;;;;;12.93;8.97;;;;;;;19.23;78.52;98429.61;1772505;80;22263;-63
2021/09/18 03:37:04;;;;;;;16.10;9.90;;;;;;;19.25;78.70;98427.16;1772393;80;22596;-62
2021/09/18 03:39:31;;;;;;;11.80;9.75;;;;;;;19.30;78.57;98424.03;1772726;80;21495;-62
2021/09/18 03:41:59;;;;;;;12.60;10.05;;;;;;;19.31;78.55;98424.39;1763824;80;21502;-62
2021/09/18 03:44:26;;;;;;;11.65;9.28;;;;;;;19.31;78.39;98413.73;1741829;80;21487;-62
2021/09/18 03:46:52;;;;;;;12.23;9.98;;;;;;;19.28;78.29;98421.18;1751219;81;20983;-61
2021/09/18 03:49:19;;;;;;;10.98;8.73;;;;;;;19.24;78.21;98416.14;1761906;80;22040;-63
2021/09/18 03:51:47;;;;;;;16.40;9.05;;;;;;;19.25;78.39;98419.16;1754510;80;22506;-64
2021/09/18 03:54:14;;;;;;;9.78;8.78;;;;;;;19.28;78.38;98415.85;1769668;80;20946;-65
2021/09/18 03:56:42;;;;;;;13.70;9.73;;;;;;;19.30;78.29;98412.03;1773811;80;21455;-64
2021/09/18 03:59:09;;;;;;;15.75;9.93;;;;;;;19.29;78.00;98411.71;1755452;80;21568;-63
2021/09/18 04:01:37;;;;;;;11.33;10.00;;;;;;;19.18;77.69;98405.27;1764170;80;21700;-65
2021/09/18 04:04:05;;;;;;;11.75;9.35;;;;;;;19.18;77.69;98405.27;1763461;80;21393;-64
2021/09/18 04:06:32;;;;;;;14.98;10.00;;;;;;;19.20;78.07;98408.61;1762089;80;21556;-65
2021/09/18 04:09:00;;;;;;;12.45;9.00;;;;;;;19.22;78.11;98406.13;1741555;81;21039;-64
2021/09/18 04:11:28;;;;;;;13.75;9.18;;;;;;;19.23;77.98;98409.16;1754216;80;21542;-65
2021/09/18 04:13:56;;;;;;;15.00;10.80;;;;;;;19.19;77.84;98401.59;1744229;80;21428;-65
2021/09/18 04:16:23;;;;;;;10.40;9.40;;;;;;;19.15;77.54;98398.89;1746272;80;21376;-65
2021/09/18 04:18:50;;;;;;;17.65;9.65;;;;;;;19.11;78.08;98398.36;1770309;80;21466;-65
2021/09/18 04:21:19;;;;;;;12.65;9.18;;;;;;;19.17;78.31;98403.58;1770038;80;21431;-65
2021/09/18 04:23:47;;;;;;;14.60;10.00;;;;;;;19.17;78.31;98403.58;1766900;80;21468;-65
2021/09/18 04:26:14;;;;;;;13.50;10.70;;;;;;;19.17;78.23;98396.41;1739865;80;21862;-66
2021/09/18 04:28:42;;;;;;;13.68;9.53;;;;;;;19.14;77.98;98401.23;1727556;82;21574;-65
2021/09/18 04:31:09;;;;;;;17.30;10.30;;;;;;;19.10;78.11;98395.36;1764859;80;21503;-65
2021/09/18 04:33:37;;;;;;;13.18;9.85;;;;;;;19.15;78.18;98402.39;1763401;80;21423;-65
2021/09/18 04:36:04;;;;;;;15.67;10.60;;;;;;;19.15;78.20;98398.89;1764889;80;21416;-65
2021/09/18 04:38:31;;;;;;;16.85;11.73;;;;;;;19.13;78.12;98399.04;1764746;80;21694;-66
2021/09/18 04:40:58;;;;;;;14.85;9.33;;;;;;;19.09;78.15;98399.50;1764576;80;21554;-66
2021/09/18 04:43:25;;;;;;;11.05;9.80;;;;;;;19.06;78.40;98396.16;1764731;80;20978;-66
2021/09/18 04:45:52;;;;;;;16.75;10.28;;;;;;;19.10;78.50;98391.84;1764576;80;21431;-66
2021/09/18 04:48:19;;;;;;;15.98;10.85;;;;;;;19.12;78.58;98392.52;1764988;80;21440;-65
2021/09/18 04:50:46;;;;;;;12.95;10.78;;;;;;;19.12;78.54;98389.86;1759920;80;22120;-65
2021/09/18 04:53:13;;;;;;;14.68;11.35;;;;;;;19.08;78.56;98392.02;1757497;80;21514;-65
2021/09/18 04:55:41;;;;;;;16.82;9.93;;;;;;;19.07;78.95;98388.99;1733892;81;21525;-65
2021/09/18 04:58:08;;;;;;;16.17;10.18;;;;;;;19.11;78.91;98393.53;1733965;81;21470;-65
2021/09/18 05:00:35;;;;;;;15.15;10.30;;;;;;;19.11;78.91;98393.53;1748006;80;21428;-65
2021/09/18 05:03:02;;;;;;;14.83;10.65;;;;;;;19.12;79.18;98397.85;1764496;80;21864;-65
2021/09/18 05:05:29;;;;;;;13.43;10.73;;;;;;;19.11;79.11;98397.53;1727810;82;21603;-66
2021/09/18 05:07:56;;;;;;;16.48;10.68;;;;;;;19.10;79.12;98404.69;1743024;80;21463;-66
2021/09/18 05:10:23;;;;;;;17.23;10.85;;;;;;;19.12;79.25;98404.52;1752757;80;21490;-64
2021/09/18 05:12:50;;;;;;;17.42;10.32;;;;;;;19.16;79.14;98401.41;1736274;80;20970;-62
2021/09/18 05:15:16;;;;;;;14.03;10.30;;;;;;;19.24;79.53;98394.00;1734023;81;21787;-62
2021/09/18 05:17:44;;;;;;;12.00;10.30;;;;;;;19.24;79.53;98394.00;1733955;82;21566;-66
2021/09/18 05:20:11;;;;;;;17.20;11.53;;;;;;;19.24;79.06;98391.33;1734480;80;21518;-67
2021/09/18 05:22:38;;;;;;;16.20;10.70;;;;;;;19.22;78.96;98388.81;1735216;80;21017;-65
2021/09/18 05:25:07;;;;;;;22.50;11.05;;;;;;;19.31;78.71;98391.08;1742537;80;21397;-66
2021/09/18 05:27:36;;;;;;;14.35;10.05;;;;;;;19.31;78.71;98391.08;1744810;81;21420;-66
2021/09/18 05:30:04;;;;;;;15.32;10.58;;;;;;;19.36;78.87;98387.94;1735016;80;21494;-67
2021/09/18 05:32:33;;;;;;;15.98;12.05;;;;;;;19.36;78.87;98387.94;1745113;80;21473;-65
2021/09/18 05:35:01;;;;;;;21.05;10.68;;;;;;;19.33;78.54;98389.59;1737495;81;21551;-67
2021/09/18 05:37:34;;;;;;;16.95;11.28;;;;;;;19.32;78.69;98391.40;1735105;80;21407;-73
2021/09/18 05:40:00;;;;;;;17.20;11.93;;;;;;;19.41;78.33;98394.48;1755065;80;22207;-71
2021/09/18 05:42:28;;;;;;;17.33;11.60;;;;;;;19.41;78.33;98394.48;1733571;80;21428;-67
2021/09/18 05:44:55;;;;;;;17.50;11.50;;;;;;;19.44;78.33;98394.70;1765165;80;25648;-71
2021/09/18 05:47:21;;;;;;;18.27;11.63;;;;;;;19.42;78.29;98393.52;1752749;80;21449;-68
2021/09/18 05:49:48;;;;;;;14.47;12.07;;;;;;;19.41;78.22;98395.82;1743405;80;21511;-68
2021/09/18 05:52:15;;;;;;;16.62;11.10;;;;;;;19.49;78.08;98394.23;1747127;80;22107;-67
2021/09/18 05:54:44;;;;;;;18.48;11.73;;;;;;;19.48;77.91;98394.73;1739387;80;21457;-64
2021/09/18 05:57:10;;;;;;;19.60;12.25;;;;;;;19.48;77.88;98393.40;1735889;82;21496;-68
2021/09/18 05:59:37;;;;;;;21.50;16.30;;;;;;;19.44;77.96;98392.03;1735408;80;21499;-67
2021/09/18 06:02:06;;;;;;;18.02;13.15;;;;;;;19.38;77.73;98397.48;1742804;80;20984;-73
2021/09/18 06:04:32;;;;;;;27.37;17.00;;;;;;;19.37;78.09;98399.78;1756726;80;22132;-73
2021/09/18 06:06:59;;;;;;;19.77;12.20;;;;;;;19.39;78.04;98394.31;1770444;80;21561;-67
2021/09/18 06:09:26;;;;;;;18.37;12.03;;;;;;;19.41;78.08;98391.83;1759665;80;21423;-66
2021/09/18 06:11:52;;;;;;;17.52;12.05;;;;;;;19.50;78.55;98393.25;1742131;81;21438;-66
2021/09/18 06:14:19;;;;;;;14.93;10.72;;;;;;;19.55;77.85;98405.60;1764215;80;21541;-66
2021/09/18 06:16:46;;;;;;;13.30;10.90;;;;;;;19.55;77.85;98405.60;1765454;80;22097;-67
2021/09/18 06:19:14;;;;;;;16.97;11.15;;;;;;;19.59;77.38;98400.30;1765200;80;21735;-67
2021/09/18 06:21:41;;;;;;;16.70;12.33;;;;;;;19.60;76.74;98396.16;1766150;80;21560;-67
2021/09/18 06:24:11;;;;;;;18.92;12.23;;;;;;;19.60;76.74;98396.16;1760779;80;21540;-67
2021/09/18 06:26:39;;;;;;;16.75;11.75;;;;;;;19.59;76.79;98401.64;1748420;80;21443;-68
2021/09/18 06:29:07;;;;;;;14.43;11.35;;;;;;;19.59;76.35;98397.16;1740220;82;21475;-69
2021/09/18 06:31:36;;;;;;;17.23;10.93;;;;;;;19.59;76.35;98397.16;1741466;80;21502;-69
2021/09/18 06:34:02;;;;;;;17.52;10.82;;;;;;;19.63;75.94;98407.86;1741995;82;21488;-70
2021/09/18 06:36:30;;;;;;;14.68;11.45;;;;;;;19.57;75.38;98405.81;1741870;82;21566;-70
2021/09/18 06:38:57;;;;;;;13.45;11.38;;;;;;;19.57;75.38;98405.81;1741962;82;21415;-67
2021/09/18 06:41:24;;;;;;;18.17;10.83;;;;;;;19.54;75.06;98407.44;1742032;82;21639;-69
2021/09/18 06:43:51;;;;;;;15.18;10.68;;;;;;;19.55;75.41;98408.27;1741921;82;21602;-70
2021/09/18 06:46:18;;;;;;;18.82;10.60;;;;;;;19.64;75.12;98414.02;1741872;82;21456;-70
2021/09/18 06:48:44;;;;;;;19.27;11.08;;;;;;;19.67;74.99;98409.72;1742838;80;21472;-70
2021/09/18 06:51:13;;;;;;;14.07;11.28;;;;;;;19.63;74.69;98406.53;1742038;82;21505;-67
2021/09/18 06:53:41;;;;;;;14.80;10.32;;;;;;;19.60;74.75;98407.33;1756438;80;21787;-69
2021/09/18 06:56:08;;;;;;;16.50;10.15;;;;;;;19.56;74.84;98401.96;1760028;81;21452;-69
2021/09/18 06:58:36;;;;;;;13.13;9.40;;;;;;;19.62;74.85;98400.01;1756046;80;21448;-70
2021/09/18 07:01:03;;;;;;;17.05;9.25;;;;;;;19.69;74.79;98397.08;1686623;84;21458;-67
2021/09/18 07:03:30;;;;;;;12.43;9.38;;;;;;;19.72;74.54;98395.92;1685281;83;21470;-69
2021/09/18 07:05:57;;;;;;;13.98;10.15;;;;;;;19.74;74.24;98397.96;1685981;83;21807;-66
2021/09/18 07:08:24;;;;;;;10.85;8.43;;;;;;;19.74;73.97;98399.30;1742889;80;21535;-67
2021/09/18 07:12:06;;;;;;;9.75;8.58;;;;;;;19.86;73.77;98402.58;1786084;79;22578;-65
2021/09/18 07:14:33;;;;;;;10.98;8.60;;;;;;;19.77;73.24;98407.00;1685316;84;21009;-66
2021/09/18 07:17:01;;;;;;;12.53;8.58;;;;;;;19.73;73.25;98397.64;1701790;83;21557;-65
2021/09/18 07:22:09;;;;;;;15.90;7.67;;;;;;;19.68;72.11;98406.05;1703971;83;21496;-65
2021/09/18 07:24:37;;;;;;;9.65;8.13;;;;;;;19.68;72.11;98406.05;1687753;81;21452;-64
2021/09/18 07:27:04;;;;;;;10.73;8.80;;;;;;;19.59;71.72;98398.50;1726175;81;21523;-67
2021/09/18 07:29:32;;;;;;;11.73;7.15;;;;;;;19.53;71.83;98408.92;1731934;81;21801;-66
2021/09/18 07:32:00;;;;;;;13.10;5.70;;;;;;;19.44;71.86;98420.02;1731270;81;21451;-66
2021/09/18 07:34:26;;;;;;;7.08;5.60;;;;;;;19.43;72.18;98411.67;1731170;81;21549;-67
2021/09/18 07:36:53;;;;;;;8.93;5.37;;;;;;;19.54;72.10;98415.44;1735368;81;21582;-65
2021/09/18 07:39:21;;;;;;;7.15;5.28;;;;;;;19.57;71.33;98415.62;1730777;81;21443;-66
2021/09/18 07:41:47;;;;;;;8.45;5.65;;;;;;;19.60;71.00;98417.98;1731139;81;21730;-66
2021/09/18 07:44:14;;;;;;;6.75;4.85;;;;;;;19.61;71.22;98418.34;1731509;81;21585;-66
2021/09/18 07:46:41;;;;;;;7.33;4.20;;;;;;;19.67;70.66;98416.89;1727996;81;21052;-68
2021/09/18 07:49:07;;;;;;;3.70;3.40;;;;;;;19.75;69.97;98414.32;1726521;81;21035;-68
2021/09/18 07:51:34;;;;;;;3.33;3.10;;;;;;;19.76;69.63;98425.31;1727496;80;21598;-70
2021/09/18 07:54:02;;;;;;;3.15;2.85;;;;;;;19.76;68.94;98421.31;1725771;81;21789;-67
2021/09/18 07:56:29;;;;;;;;;;;;;;;19.75;68.18;98423.15;1726484;81;21519;-67
2021/09/18 07:58:57;;;;;;;2.52;2.33;;;;;;;19.65;67.28;98423.20;1725445;81;20179;-67
2021/09/18 08:01:27;;;;;;;2.65;2.47;;;;;;;19.72;67.39;98427.47;1727442;81;21522;-67
2021/09/18 08:03:58;;;;;;;2.80;2.60;;;;;;;19.72;67.39;98427.47;1725650;80;21613;-66
2021/09/18 08:06:21;;;;;;;2.55;2.35;;;;;;;19.68;67.27;98427.38;1725862;82;21834;-66
2021/09/18 08:08:49;;;;;;;2.45;2.25;;;;;;;19.65;67.28;98432.53;1725991;80;21602;-66
2021/09/18 08:11:19;;;;;;;2.75;2.60;;;;;;;19.63;67.34;98425.19;1725766;81;21567;-67
2021/09/18 08:13:46;;;;;;;2.80;2.60;;;;;;;19.64;67.16;98430.84;1726442;80;21588;-66
2021/09/18 08:16:13;;;;;;;;;;;;;;;19.61;66.93;98436.50;1728791;81;21558;-68
2021/09/18 08:18:40;;;;;;;2.17;2.08;;;;;;;19.59;66.99;98427.82;1726654;81;21207;-64
2021/09/18 08:21:10;;;;;;;2.42;2.22;;;;;;;19.59;66.62;98434.48;1722661;81;21429;-66
2021/09/18 08:23:37;;;;;;;3.10;2.80;;;;;;;19.59;66.62;98434.48;1720222;81;21421;-66
2021/09/18 08:26:05;;;;;;;2.60;2.40;;;;;;;19.56;66.96;98429.95;1722415;81;21043;-66
2021/09/18 08:28:32;;;;;;;3.17;2.15;;;;;;;19.53;67.28;98435.08;1728999;81;21094;-66
2021/09/18 08:30:58;;;;;;;2.47;2.27;;;;;;;19.58;67.87;98431.47;1735261;80;21872;-65
2021/09/18 08:33:25;;;;;;;2.00;1.90;;;;;;;19.58;67.87;98431.47;1734078;80;21475;-65
2021/09/18 08:35:52;;;;;;;2.20;2.10;;;;;;;19.70;67.49;98437.39;1735228;80;21549;-65
2021/09/18 08:38:19;;;;;;;3.15;2.70;;;;;;;19.67;67.04;98436.39;1746293;80;21475;-65
2021/09/18 08:40:48;;;;;;;2.58;2.37;;;;;;;19.58;67.03;98439.97;1726295;82;21534;-65
2021/09/18 08:43:16;;;;;;;16.37;9.25;;;;;;;19.49;67.40;98443.03;1726219;82;22126;-65
2021/09/18 08:45:43;;;;;;;4.65;3.47;;;;;;;19.41;68.84;98446.46;1713972;82;21581;-65
2021/09/18 08:48:10;;;;;;;2.70;2.00;;;;;;;19.41;68.84;98446.46;1732113;81;21416;-66
2021/09/18 08:50:37;;;;;;;4.87;2.43;;;;;;;19.50;68.32;98453.23;1726335;82;21452;-66
2021/09/18 08:53:04;;;;;;;2.22;2.02;;;;;;;19.50;68.09;98454.56;1725176;82;21612;-65
2021/09/18 08:55:30;;;;;;;2.23;2.10;;;;;;;19.42;68.14;98454.81;1726203;82;21756;-66
2021/09/18 08:57:57;;;;;;;3.20;2.67;;;;;;;19.32;68.68;98455.86;1726076;82;21475;-63
2021/09/18 09:00:35;;;;;;;4.62;2.02;;;;;;;19.11;70.88;98468.13;1726295;82;21019;-64
2021/09/18 09:03:06;;;;;;;2.45;2.20;;;;;;;19.11;70.88;98468.13;1726177;82;21566;-64
2021/09/18 09:05:37;;;;;;;3.87;1.85;;;;;;;19.06;71.08;98466.75;1726045;81;21042;-64
2021/09/18 09:08:16;;;;;;;2.37;2.27;;;;;;;18.98;71.67;98465.80;1722929;82;21738;-64
2021/09/18 09:10:46;;;;;;;2.10;1.90;;;;;;;18.72;72.75;98470.42;1720208;83;21636;-66
2021/09/18 09:13:20;;;;;;;3.60;1.80;;;;;;;18.72;72.75;98470.42;1721954;81;21532;-65
2021/09/18 09:15:51;;;;;;;2.30;1.98;;;;;;;18.71;72.66;98478.58;1736056;80;21535;-66
2021/09/18 09:18:25;;;;;;;1.60;1.50;;;;;;;18.67;71.91;98479.36;1723817;81;21435;-68
2021/09/18 09:21:20;;;;;;;1.50;1.30;;;;;;;18.55;71.97;98484.50;1725293;82;21773;-66
2021/09/18 09:24:11;;;;;;;1.62;1.52;;;;;;;18.38;71.59;98473.61;1636224;87;20969;-66
2021/09/18 09:26:41;;;;;;;2.85;1.47;;;;;;;18.29;71.66;98477.16;1684184;83;21450;-66
2021/09/18 09:29:08;;;;;;;2.65;1.65;;;;;;;18.25;72.25;98477.06;1669512;84;21472;-66
2021/09/18 09:31:38;;;;;;;1.80;1.70;;;;;;;18.32;71.92;98486.16;1692961;83;21566;-66
2021/09/18 09:34:18;;;;;;;1.87;1.75;;;;;;;18.28;71.71;98485.61;1692627;84;21996;-66
2021/09/18 09:36:50;;;;;;;1.82;1.57;;;;;;;18.25;71.82;98491.70;1691254;82;21410;-65
2021/09/18 09:39:23;;;;;;;2.35;1.57;;;;;;;18.23;71.96;98493.20;1692022;84;20990;-64
2021/09/18 09:41:55;;;;;;;2.25;1.60;;;;;;;18.33;71.12;98505.62;1693010;83;21466;-65
2021/09/18 09:44:28;;;;;;;5.30;1.40;;;;;;;18.33;71.12;98505.62;1692899;83;21053;-63
2021/09/18 09:47:05;;;;;;;2.22;1.00;;;;;;;18.29;70.26;98507.25;1692679;84;22011;-63
2021/09/18 09:49:49;;;;;;;3.90;1.10;;;;;;;18.22;69.57;98509.30;1687555;82;22359;-64
2021/09/18 09:52:29;;;;;;;2.35;1.10;;;;;;;18.16;69.61;98505.38;1686941;82;21596;-64
2021/09/18 09:55:13;;;;;;;2.65;1.30;;;;;;;18.21;69.46;98490.31;1686777;82;21690;-65
2021/09/18 09:57:41;;;;;;;2.35;1.27;;;;;;;18.34;68.98;98511.30;1688422;82;21502;-65
2021/09/18 10:00:10;;;;;;;2.12;1.77;;;;;;;18.34;68.55;98517.45;1686889;82;23542;-64
2021/09/18 10:02:39;;;;;;;1.95;1.85;;;;;;;18.25;67.27;98519.63;1690356;82;21558;-63
2021/09/18 10:05:08;;;;;;;1.95;1.50;;;;;;;18.25;67.27;98519.63;1687978;82;21534;-67
2021/09/18 10:07:37;;;;;;;1.35;1.12;;;;;;;18.21;66.84;98516.91;1688344;82;21554;-68
2021/09/18 10:10:07;;;;;;;2.70;1.10;;;;;;;18.20;67.38;98523.23;1692669;82;21557;-64
2021/09/18 10:12:36;;;;;;;2.25;0.90;;;;;;;18.32;67.13;98513.27;1670286;84;21783;-64
2021/09/18 10:15:07;;;;;;;1.75;1.02;;;;;;;18.38;66.72;98519.34;1694224;83;21502;-64
2021/09/18 10:17:38;;;;;;;1.60;1.02;;;;;;;18.33;67.02;98529.56;1662175;84;21502;-66
2021/09/18 10:20:09;;;;;;;1.42;1.10;;;;;;;18.27;67.62;98531.83;1663214;85;21569;-65
2021/09/18 10:23:23;;;;;;;0.90;0.90;;;;;;;18.22;67.90;98532.73;1661969;84;21563;-65
2021/09/18 10:25:18;;;;;;;0.95;0.95;;;;;;;18.14;67.83;98535.74;1655771;84;21778;-66
2021/09/18 10:28:10;;;;;;;0.82;0.78;;;;;;;18.09;67.46;98544.16;1680471;82;21426;-64
2021/09/18 10:30:57;;;;;;;0.53;0.53;;;;;;;17.93;67.43;98534.56;1705014;82;21629;-64
2021/09/18 10:33:37;;;;;;;1.85;0.70;;;;;;;17.76;67.02;98529.41;1711591;81;21022;-64
2021/09/18 10:36:17;;;;;;;1.05;0.82;;;;;;;17.76;67.02;98529.41;1691597;83;21580;-64
2021/09/18 10:38:51;;;;;;;5.87;1.00;;;;;;;17.71;66.70;98535.98;1718605;82;21901;-62
2021/09/18 10:41:21;;;;;;;0.90;0.90;;;;;;;17.70;66.68;98540.94;1703571;82;21470;-64
2021/09/18 10:43:59;;;;;;;3.70;0.80;;;;;;;17.73;66.72;98535.02;1689314;84;21528;-64
2021/09/18 10:46:50;;;;;;;0.72;0.72;;;;;;;17.69;66.70;98531.30;1690636;82;21514;-64
2021/09/18 10:49:37;;;;;;;0.80;0.80;;;;;;;17.73;66.88;98531.03;1690712;84;21458;-65
2021/09/18 10:52:29;;;;;;;0.80;0.80;;;;;;;17.73;66.64;98538.51;1689204;82;21746;-64
2021/09/18 10:55:10;;;;;;;1.15;0.70;;;;;;;17.70;66.36;98547.58;1690955;82;21516;-64
2021/09/18 10:57:48;;;;;;;4.47;0.90;;;;;;;17.60;66.48;98552.55;1688655;82;21484;-65
2021/09/18 11:00:26;;;;;;;4.00;0.85;;;;;;;17.55;66.30;98556.09;1690663;84;21530;-69
2021/09/18 11:03:00;;;;;;;1.17;0.60;;;;;;;17.42;66.42;98546.57;1690626;82;21552;-65
2021/09/18 11:05:39;;;;;;;1.25;0.80;;;;;;;17.33;66.46;98561.99;1691018;84;21716;-66
2021/09/18 11:08:19;;;;;;;2.62;0.98;;;;;;;17.17;66.82;98558.99;1690383;84;21486;-65
2021/09/18 11:10:58;;;;;;;2.72;0.80;;;;;;;17.03;67.45;98562.86;1690594;83;21474;-65
2021/09/18 11:13:41;;;;;;;1.67;0.90;;;;;;;17.03;68.07;98570.33;1689962;84;21490;-64
2021/09/18 11:16:33;;;;;;;1.55;0.75;;;;;;;17.06;67.65;98569.21;1690243;83;21443;-68
2021/09/18 11:19:04;;;;;;;1.80;0.80;;;;;;;17.00;67.05;98573.23;1683879;83;21415;-70
2021/09/18 11:21:43;;;;;;;2.27;0.88;;;;;;;16.88;67.22;98572.48;1689875;83;21582;-69
2021/09/18 11:24:21;;;;;;;1.52;1.00;;;;;;;16.78;67.73;98570.22;1680504;84;21440;-69
2021/09/18 11:26:56;;;;;;;2.10;0.68;;;;;;;16.80;68.26;98577.59;1655737;86;21487;-68
2021/09/18 11:29:33;;;;;;;2.20;1.00;;;;;;;16.87;68.12;98573.94;1656029;85;21570;-68
2021/09/18 11:32:19;;;;;;;3.58;0.95;;;;;;;16.89;67.76;98573.32;1655972;86;21604;-68
2021/09/18 11:34:53;;;;;;;1.12;1.00;;;;;;;16.82;67.35;98582.74;1655716;86;21570;-69
2021/09/18 11:37:35;;;;;;;0.90;0.85;;;;;;;16.74;66.90;98580.75;1680461;84;21452;-68
2021/09/18 11:40:05;;;;;;;1.95;1.25;;;;;;;16.66;67.05;98577.92;1683781;84;21431;-68